createdAt,value
2019-01-18T00:02:32.771Z,8.37
2019-01-18T00:05:03.669Z,9.43
2019-01-18T00:07:34.718Z,8.87
2019-01-18T00:10:07.145Z,8.70
2019-01-18T00:12:38.989Z,8.90
2019-01-18T00:15:09.819Z,8.47
2019-01-18T00:17:40.351Z,9.40
2019-01-18T00:20:11.155Z,10.23
2019-01-18T00:22:42.910Z,8.70
2019-01-18T00:25:13.223Z,9.20
2019-01-18T00:27:43.754Z,9.17
2019-01-18T00:30:14.455Z,8.80
2019-01-18T00:32:45.450Z,9.53
2019-01-18T00:35:15.513Z,9.33
2019-01-18T00:37:46.433Z,8.77
2019-01-18T00:40:18.373Z,8.67
2019-01-18T00:42:48.377Z,8.57
2019-01-18T00:45:18.587Z,8.27
2019-01-18T00:47:52.780Z,7.30
2019-01-18T00:50:23.211Z,7.57
2019-01-18T00:52:53.900Z,8.50
2019-01-18T00:55:23.898Z,7.13
2019-01-18T00:57:54.841Z,6.90
2019-01-18T01:00:27.400Z,7.13
2019-01-18T01:02:57.529Z,7.40
2019-01-18T01:05:28.536Z,6.97
2019-01-18T01:08:01.030Z,7.80
2019-01-18T01:10:31.486Z,7.97
2019-01-18T01:13:02.373Z,7.30
2019-01-18T01:15:32.496Z,7.87
2019-01-18T01:18:03.992Z,8.00
2019-01-18T01:20:34.477Z,7.97
2019-01-18T01:23:05.233Z,8.07
2019-01-18T01:25:35.496Z,7.70
2019-01-18T01:28:06.809Z,8.70
2019-01-18T01:30:37.387Z,8.43
2019-01-18T01:33:08.696Z,8.23
2019-01-18T01:35:38.673Z,8.50
2019-01-18T01:38:10.022Z,7.53
2019-01-18T01:40:40.278Z,7.37
2019-01-18T01:43:10.200Z,7.40
2019-01-18T01:45:40.201Z,7.47
2019-01-18T01:48:10.658Z,7.30
2019-01-18T01:50:40.997Z,7.00
2019-01-18T01:53:11.992Z,8.20
2019-01-18T01:55:41.826Z,7.40
2019-01-18T01:58:12.443Z,8.60
2019-01-18T02:00:42.558Z,8.43
2019-01-18T02:03:13.041Z,8.43
2019-01-18T02:05:43.762Z,9.30
2019-01-18T02:08:15.738Z,8.57
2019-01-18T02:10:46.184Z,9.60
2019-01-18T02:13:17.694Z,9.50
2019-01-18T02:15:48.009Z,8.50
2019-01-18T02:18:18.899Z,9.00
2019-01-18T02:20:48.995Z,8.57
2019-01-18T02:23:20.017Z,8.30
2019-01-18T02:25:50.345Z,9.93
2019-01-18T02:28:20.746Z,10.03
2019-01-18T02:30:50.884Z,10.73
2019-01-18T02:33:21.236Z,9.37
2019-01-18T02:35:51.882Z,9.37
2019-01-18T02:38:23.026Z,9.60
2019-01-18T02:40:53.322Z,9.90
2019-01-18T02:43:23.521Z,9.87
2019-01-18T02:45:53.532Z,10.17
2019-01-18T02:48:23.632Z,10.83
2019-01-18T02:50:53.802Z,9.60
2019-01-18T02:53:24.446Z,9.73
2019-01-18T02:55:54.587Z,11.57
2019-01-18T02:58:26.808Z,11.40
2019-01-18T03:00:56.875Z,11.30
2019-01-18T03:03:27.150Z,10.97
2019-01-18T03:05:57.149Z,11.37
2019-01-18T03:08:27.761Z,11.37
2019-01-18T03:10:58.452Z,10.67
2019-01-18T03:13:29.838Z,9.90
2019-01-18T03:16:00.348Z,11.67
2019-01-18T03:18:32.244Z,11.20
2019-01-18T03:21:02.488Z,10.63
2019-01-18T03:23:33.679Z,11.87
2019-01-18T03:26:03.714Z,11.50
2019-01-18T03:28:34.265Z,10.70
2019-01-18T03:31:04.288Z,11.60
2019-01-18T03:33:35.749Z,12.10
2019-01-18T03:36:06.088Z,10.73
2019-01-18T03:38:38.283Z,11.03
2019-01-18T03:41:08.365Z,11.13
2019-01-18T03:43:38.907Z,11.23
2019-01-18T03:46:09.127Z,11.53
2019-01-18T03:48:39.735Z,10.73
2019-01-18T03:51:09.763Z,10.37
2019-01-18T03:53:40.444Z,11.43
2019-01-18T03:56:10.783Z,11.27
2019-01-18T03:58:41.312Z,10.20
2019-01-18T04:01:11.546Z,11.63
2019-01-18T04:03:42.217Z,10.97
2019-01-18T04:06:12.070Z,11.47
2019-01-18T04:08:42.886Z,10.80
2019-01-18T04:11:12.834Z,10.93
2019-01-18T04:13:42.864Z,11.53
2019-01-18T04:16:13.696Z,11.13
2019-01-18T04:18:43.546Z,11.17
2019-01-18T04:21:14.020Z,12.90
2019-01-18T04:23:47.733Z,12.50
2019-01-18T04:26:18.124Z,12.00
2019-01-18T04:28:48.417Z,10.87
2019-01-18T04:31:19.420Z,12.73
2019-01-18T04:33:49.368Z,11.47
2019-01-18T04:36:19.576Z,12.70
2019-01-18T04:38:49.633Z,12.83
2019-01-18T04:41:20.355Z,12.43
2019-01-18T04:43:50.447Z,12.17
2019-01-18T04:46:21.093Z,11.03
2019-01-18T04:48:52.865Z,12.40
2019-01-18T04:51:23.549Z,11.07
2019-01-18T04:53:54.097Z,10.50
2019-01-18T04:56:24.948Z,11.43
2019-01-18T04:58:55.086Z,12.37
2019-01-18T05:01:26.078Z,11.60
2019-01-18T05:03:56.315Z,11.43
2019-01-18T05:06:27.517Z,11.60
2019-01-18T05:08:57.453Z,11.43
2019-01-18T05:11:28.566Z,11.40
2019-01-18T05:13:58.512Z,10.37
2019-01-18T05:16:30.379Z,10.53
2019-01-18T05:19:00.345Z,9.83
2019-01-18T05:21:30.701Z,11.00
2019-01-18T05:24:00.634Z,10.33
2019-01-18T05:26:31.538Z,10.03
2019-01-18T05:29:02.229Z,10.23
2019-01-18T05:31:34.663Z,10.03
2019-01-18T05:34:05.054Z,10.00
2019-01-18T05:36:35.761Z,10.43
2019-01-18T05:39:07.720Z,11.27
2019-01-18T05:41:39.693Z,10.37
2019-01-18T05:44:09.617Z,9.47
2019-01-18T05:46:41.076Z,9.50
2019-01-18T05:49:11.716Z,9.20
2019-01-18T05:51:43.763Z,9.70
2019-01-18T05:54:14.360Z,9.90
2019-01-18T05:56:45.126Z,9.33
2019-01-18T05:59:15.572Z,10.60
2019-01-18T06:01:46.729Z,10.20
2019-01-18T06:04:17.070Z,9.63
2019-01-18T06:06:47.495Z,10.70
2019-01-18T06:09:17.949Z,10.47
2019-01-18T06:11:48.133Z,11.60
2019-01-18T06:14:18.094Z,10.37
2019-01-18T06:16:48.568Z,10.03
2019-01-18T06:19:18.628Z,11.70
2019-01-18T06:21:49.003Z,10.67
2019-01-18T06:24:19.607Z,12.57
2019-01-18T06:26:49.986Z,18.57
2019-01-18T06:29:19.906Z,18.43
2019-01-18T06:31:49.980Z,33.77
2019-01-18T06:34:20.422Z,19.33
2019-01-18T06:36:50.701Z,18.83
2019-01-18T06:39:21.561Z,14.47
2019-01-18T06:41:53.545Z,15.93
2019-01-18T06:44:24.345Z,12.63
2019-01-18T06:46:54.926Z,13.20
2019-01-18T06:49:25.237Z,13.00
2019-01-18T06:51:56.269Z,13.20
2019-01-18T06:54:26.575Z,12.80
2019-01-18T06:56:57.088Z,12.30
2019-01-18T06:59:27.367Z,10.53
2019-01-18T07:01:59.921Z,11.23
2019-01-18T07:04:29.976Z,10.87
2019-01-18T07:07:00.322Z,11.23
2019-01-18T07:09:30.553Z,10.57
2019-01-18T07:12:01.116Z,10.80
2019-01-18T07:14:31.815Z,10.50
2019-01-18T07:17:02.700Z,10.50
2019-01-18T07:19:32.807Z,11.50
2019-01-18T07:22:03.748Z,11.90
2019-01-18T07:24:33.919Z,12.53
2019-01-18T07:27:04.867Z,11.43
2019-01-18T07:29:35.605Z,11.77
2019-01-18T07:32:06.661Z,14.07
2019-01-18T07:34:36.894Z,18.40
2019-01-18T07:37:08.987Z,19.03
2019-01-18T07:39:39.579Z,17.00
2019-01-18T07:42:10.438Z,16.90
2019-01-18T07:44:40.737Z,15.67
2019-01-18T07:47:11.096Z,13.17
2019-01-18T07:49:41.266Z,11.83
2019-01-18T07:52:11.722Z,10.90
2019-01-18T07:54:42.072Z,11.60
2019-01-18T07:57:13.659Z,8.53
2019-01-18T07:59:44.023Z,8.50
2019-01-18T08:02:14.867Z,8.10
2019-01-18T08:04:45.180Z,7.80
2019-01-18T08:07:15.822Z,7.30
2019-01-18T08:09:46.305Z,7.40
2019-01-18T08:12:16.912Z,8.60
2019-01-18T08:14:47.328Z,9.40
2019-01-18T08:17:18.357Z,9.13
2019-01-18T08:19:48.521Z,9.07
2019-01-18T08:22:20.606Z,8.37
2019-01-18T08:24:52.252Z,7.30
2019-01-18T08:27:22.402Z,6.60
2019-01-18T08:29:52.793Z,7.23
2019-01-18T08:32:24.412Z,6.20
2019-01-18T08:34:55.046Z,7.10
2019-01-18T08:37:29.294Z,9.33
2019-01-18T08:40:00.088Z,7.03
2019-01-18T08:42:31.468Z,5.83
2019-01-18T08:45:01.440Z,6.03
2019-01-18T08:47:32.278Z,9.57
2019-01-18T08:50:02.992Z,8.00
2019-01-18T08:52:34.107Z,7.07
2019-01-18T08:55:04.697Z,5.47
2019-01-18T08:57:35.676Z,5.93
2019-01-18T09:00:09.251Z,6.50
2019-01-18T09:02:40.570Z,5.17
2019-01-18T09:05:13.543Z,4.80
2019-01-18T09:07:44.014Z,4.63
2019-01-18T09:10:15.806Z,6.23
2019-01-18T09:12:46.054Z,10.27
2019-01-18T09:15:16.811Z,6.40
2019-01-18T09:17:46.944Z,5.17
2019-01-18T09:20:22.702Z,5.40
2019-01-18T09:22:53.079Z,4.63
2019-01-18T09:25:23.403Z,4.57
2019-01-18T09:27:54.870Z,4.00
2019-01-18T09:30:31.906Z,3.67
2019-01-18T09:33:03.657Z,3.80
2019-01-18T09:35:34.293Z,3.40
2019-01-18T09:38:06.269Z,3.30
2019-01-18T09:40:36.444Z,2.83
2019-01-18T09:43:06.912Z,2.87
2019-01-18T09:45:37.421Z,2.73
2019-01-18T09:48:10.033Z,2.50
2019-01-18T09:50:40.556Z,2.37
2019-01-18T09:53:11.958Z,2.58
2019-01-18T09:55:42.552Z,2.15
2019-01-18T09:58:13.890Z,1.90
2019-01-18T10:00:44.299Z,2.22
2019-01-18T10:03:15.177Z,2.20
2019-01-18T10:05:46.193Z,2.75
2019-01-18T10:08:16.409Z,2.30
2019-01-18T10:10:46.478Z,2.57
2019-01-18T10:13:16.928Z,2.60
2019-01-18T10:15:48.022Z,3.10
2019-01-18T10:18:18.247Z,3.10
2019-01-18T10:20:48.636Z,2.40
2019-01-18T10:23:18.924Z,3.00
2019-01-18T10:25:49.289Z,2.20
2019-01-18T10:28:19.842Z,2.60
2019-01-18T10:30:49.945Z,2.40
2019-01-18T10:33:20.202Z,2.00
2019-01-18T10:35:50.302Z,2.20
2019-01-18T10:38:20.477Z,2.20
2019-01-18T10:40:51.685Z,2.23
2019-01-18T10:43:21.920Z,2.60
2019-01-18T10:45:52.010Z,3.07
2019-01-18T10:48:22.033Z,3.23
2019-01-18T10:50:52.725Z,3.53
2019-01-18T10:53:23.642Z,3.00
2019-01-18T10:55:54.084Z,3.17
2019-01-18T10:58:24.376Z,2.50
2019-01-18T11:00:54.775Z,2.77
2019-01-18T11:03:25.106Z,2.50
2019-01-18T11:05:55.741Z,2.10
2019-01-18T11:08:27.828Z,2.70
2019-01-18T11:10:58.479Z,2.20
2019-01-18T11:13:28.807Z,2.40
2019-01-18T11:15:59.230Z,2.20
2019-01-18T11:18:29.261Z,2.50
2019-01-18T11:21:09.248Z,2.43
2019-01-18T11:23:39.827Z,2.50
2019-01-18T11:26:12.438Z,2.50
2019-01-18T11:28:42.784Z,2.30
2019-01-18T11:31:13.651Z,1.60
2019-01-18T11:33:44.083Z,1.80
2019-01-18T11:36:14.106Z,1.40
2019-01-18T11:38:45.942Z,1.20
2019-01-18T11:41:16.113Z,1.20
2019-01-18T11:43:46.337Z,1.17
2019-01-18T11:46:16.394Z,0.90
2019-01-18T11:48:50.266Z,1.10
2019-01-18T11:51:18.999Z,1.70
2019-01-18T11:53:49.319Z,1.93
2019-01-18T11:56:19.488Z,1.83
2019-01-18T11:58:50.315Z,2.00
2019-01-18T12:01:20.371Z,2.00
2019-01-18T12:03:50.715Z,2.40
2019-01-18T12:06:21.407Z,2.50
2019-01-18T12:08:52.193Z,2.30
2019-01-18T12:11:22.661Z,2.30
2019-01-18T12:13:53.017Z,2.10
2019-01-18T12:16:31.966Z,2.50
2019-01-18T12:19:02.042Z,2.30
2019-01-18T12:21:37.131Z,2.40
2019-01-18T12:24:06.066Z,2.80
2019-01-18T12:26:36.154Z,3.40
2019-01-18T12:29:06.509Z,2.53
2019-01-18T12:31:37.326Z,2.83
2019-01-18T12:34:07.661Z,2.93
2019-01-18T12:36:37.683Z,2.97
2019-01-18T12:39:11.064Z,2.70
2019-01-18T12:41:41.765Z,2.47
2019-01-18T12:44:12.038Z,2.73
2019-01-18T12:46:42.305Z,2.80
2019-01-18T12:49:12.522Z,3.50
2019-01-18T12:51:42.980Z,3.67
2019-01-18T12:54:13.846Z,2.67
2019-01-18T12:56:44.320Z,2.53
2019-01-18T12:59:14.725Z,3.43
2019-01-18T13:01:44.963Z,3.10
2019-01-18T13:04:14.981Z,3.67
2019-01-18T13:06:45.059Z,3.13
2019-01-18T13:09:15.398Z,3.47
2019-01-18T13:11:45.997Z,3.00
2019-01-18T13:14:16.296Z,3.33
2019-01-18T13:16:47.669Z,3.10
2019-01-18T13:19:21.614Z,3.20
2019-01-18T13:21:51.840Z,3.57
2019-01-18T13:24:23.273Z,3.30
2019-01-18T13:26:56.298Z,3.20
2019-01-18T13:29:26.264Z,3.80
2019-01-18T13:31:57.311Z,4.23
2019-01-18T13:34:27.750Z,3.37
2019-01-18T13:36:57.990Z,3.60
2019-01-18T13:39:28.655Z,3.40
2019-01-18T13:41:59.949Z,3.30
2019-01-18T13:44:30.609Z,3.80
2019-01-18T13:47:00.787Z,3.40
2019-01-18T13:49:30.867Z,3.80
2019-01-18T13:52:01.129Z,3.77
2019-01-18T13:54:31.297Z,3.53
2019-01-18T13:57:01.472Z,3.60
2019-01-18T13:59:31.677Z,3.40
2019-01-18T14:02:02.129Z,3.60
2019-01-18T14:04:32.405Z,4.00
2019-01-18T14:07:02.801Z,3.37
2019-01-18T14:09:33.374Z,3.23
2019-01-18T14:12:03.930Z,3.53
2019-01-18T14:14:34.316Z,3.50
2019-01-18T14:17:04.805Z,2.97
2019-01-18T14:19:35.397Z,3.50
2019-01-18T14:22:06.073Z,3.50
2019-01-18T14:24:36.310Z,3.50
2019-01-18T14:27:06.535Z,3.00
2019-01-18T14:29:36.703Z,3.00
2019-01-18T14:32:07.333Z,3.50
2019-01-18T14:34:37.856Z,3.43
2019-01-18T14:37:08.313Z,3.40
2019-01-18T14:39:38.767Z,3.80
2019-01-18T14:42:09.385Z,3.80
2019-01-18T14:44:40.203Z,3.50
2019-01-18T14:47:11.053Z,3.60
2019-01-18T14:49:41.446Z,4.20
2019-01-18T14:52:12.318Z,4.97
2019-01-18T14:54:43.037Z,4.70
2019-01-18T14:57:13.853Z,4.00
2019-01-18T14:59:44.272Z,4.63
2019-01-18T15:02:14.431Z,4.10
2019-01-18T15:04:46.360Z,5.97
2019-01-18T15:07:16.669Z,4.87
2019-01-18T15:09:46.839Z,4.57
2019-01-18T15:12:16.941Z,4.50
2019-01-18T15:14:46.979Z,4.37
2019-01-18T15:17:17.156Z,4.00
2019-01-18T15:19:47.644Z,3.83
2019-01-18T15:22:18.072Z,3.93
2019-01-18T15:24:48.710Z,3.80
2019-01-18T15:27:18.987Z,3.60
2019-01-18T15:29:49.506Z,3.70
2019-01-18T15:32:20.202Z,4.20
2019-01-18T15:34:50.514Z,3.70
2019-01-18T15:37:20.767Z,4.27
2019-01-18T15:39:50.983Z,4.23
2019-01-18T15:42:22.676Z,4.20
2019-01-18T15:44:52.915Z,4.30
2019-01-18T15:47:23.359Z,4.87
2019-01-18T15:49:53.350Z,4.70
2019-01-18T15:52:27.541Z,7.57
2019-01-18T15:54:57.958Z,7.03
2019-01-18T15:57:28.545Z,6.90
2019-01-18T15:59:58.817Z,5.80
2019-01-18T16:02:30.475Z,4.80
2019-01-18T16:05:02.198Z,4.57
2019-01-18T16:07:41.979Z,4.63
2019-01-18T16:10:13.041Z,8.77
2019-01-18T16:12:43.511Z,7.73
2019-01-18T16:15:14.874Z,8.63
2019-01-18T16:17:46.373Z,6.03
2019-01-18T16:20:18.117Z,8.90
2019-01-18T16:22:49.162Z,9.60
2019-01-18T16:25:22.915Z,9.07
2019-01-18T16:27:53.521Z,8.10
2019-01-18T16:30:23.854Z,6.77
2019-01-18T16:32:55.399Z,6.40
2019-01-18T16:35:25.822Z,8.33
2019-01-18T16:37:56.029Z,8.30
2019-01-18T16:40:28.625Z,6.33
2019-01-18T16:43:05.800Z,5.27
2019-01-18T16:45:35.943Z,5.37
2019-01-18T16:48:08.188Z,6.17
2019-01-18T16:50:38.665Z,6.43
2019-01-18T16:53:09.376Z,7.00
2019-01-18T16:55:40.133Z,9.33
2019-01-18T16:58:10.735Z,7.50
2019-01-18T17:00:42.399Z,9.60
2019-01-18T17:03:12.488Z,9.60
2019-01-18T17:05:42.589Z,8.63
2019-01-18T17:08:13.421Z,9.67
2019-01-18T17:10:43.709Z,9.70
2019-01-18T17:13:14.014Z,10.17
2019-01-18T17:15:44.729Z,7.97
2019-01-18T17:18:15.247Z,7.90
2019-01-18T17:20:45.675Z,7.80
2019-01-18T17:23:16.473Z,8.40
2019-01-18T17:25:46.888Z,7.53
2019-01-18T17:28:18.206Z,8.30
2019-01-18T17:30:48.591Z,8.37
2019-01-18T17:33:19.239Z,7.13
2019-01-18T17:36:28.306Z,6.47
2019-01-18T17:39:50.677Z,7.27
2019-01-18T17:42:53.954Z,6.10
2019-01-18T17:45:59.380Z,6.43
2019-01-18T17:49:06.905Z,6.27
2019-01-18T17:52:13.250Z,6.03
2019-01-18T17:55:27.907Z,6.77
2019-01-18T17:59:10.251Z,6.60
2019-01-18T18:02:26.232Z,6.50
2019-01-18T18:05:40.468Z,6.77
2019-01-18T18:08:35.545Z,6.93
2019-01-18T18:11:47.335Z,6.77
2019-01-18T18:15:10.860Z,6.60
2019-01-18T18:18:09.352Z,6.63
2019-01-18T18:21:48.149Z,6.70
2019-01-18T18:24:41.457Z,6.33
2019-01-18T18:27:42.597Z,7.30
2019-01-18T18:30:32.954Z,7.70
2019-01-18T18:33:35.196Z,10.20
2019-01-18T18:36:59.145Z,9.87
2019-01-18T18:40:10.244Z,10.40
2019-01-18T18:43:29.804Z,11.63
2019-01-18T18:46:40.472Z,11.07
2019-01-18T18:49:36.618Z,11.13
2019-01-18T18:52:42.736Z,9.17
2019-01-18T18:55:39.598Z,8.80
2019-01-18T18:58:27.292Z,7.90
2019-01-18T19:01:11.757Z,8.03
2019-01-18T19:04:12.653Z,8.43
2019-01-18T19:07:26.004Z,8.90
2019-01-18T19:10:14.421Z,11.27
2019-01-18T19:13:06.144Z,10.03
2019-01-18T19:16:15.821Z,11.30
2019-01-18T19:19:31.550Z,12.60
2019-01-18T19:22:48.247Z,14.07
2019-01-18T19:25:43.699Z,14.87
2019-01-18T19:28:51.532Z,12.10
2019-01-18T19:31:51.602Z,12.00
2019-01-18T19:34:43.649Z,12.60
2019-01-18T19:38:04.639Z,10.30
2019-01-18T19:41:22.398Z,9.17
2019-01-18T19:44:22.622Z,7.93
2019-01-18T19:47:45.038Z,8.47
2019-01-18T19:50:52.954Z,8.20
2019-01-18T19:54:03.233Z,7.83
2019-01-18T19:56:59.471Z,7.43
2019-01-18T20:00:09.425Z,8.17
2019-01-18T20:03:34.989Z,8.93
2019-01-18T20:06:55.354Z,8.50
2019-01-18T20:09:56.105Z,8.10
2019-01-18T20:13:02.163Z,8.23
2019-01-18T20:16:11.417Z,9.03
2019-01-18T20:19:24.845Z,8.87
2019-01-18T20:22:48.181Z,9.30
2019-01-18T20:25:34.359Z,10.07
2019-01-18T20:28:46.646Z,9.60
2019-01-18T20:31:38.162Z,9.90
2019-01-18T20:34:31.403Z,8.30
2019-01-18T20:37:08.152Z,8.77
2019-01-18T20:40:05.932Z,8.90
2019-01-18T20:43:02.302Z,8.63
2019-01-18T20:45:57.048Z,9.13
2019-01-18T20:49:08.215Z,9.80
2019-01-18T20:51:51.959Z,8.93
2019-01-18T20:55:00.405Z,8.80
2019-01-18T20:57:46.594Z,9.13
2019-01-18T21:00:53.623Z,10.00
2019-01-18T21:03:41.927Z,9.40
2019-01-18T21:06:49.244Z,10.30
2019-01-18T21:09:39.329Z,9.20
2019-01-18T21:12:35.281Z,9.87
2019-01-18T21:15:30.162Z,9.53
2019-01-18T21:18:31.527Z,9.67
2019-01-18T21:21:42.718Z,10.40
2019-01-18T21:24:43.019Z,10.33
2019-01-18T21:27:53.610Z,10.23
2019-01-18T21:30:56.796Z,10.83
2019-01-18T21:33:59.771Z,9.07
2019-01-18T21:37:17.435Z,9.33
2019-01-18T21:40:34.281Z,10.47
2019-01-18T21:43:51.681Z,9.83
2019-01-18T21:47:18.180Z,9.20
2019-01-18T21:50:35.402Z,11.00
2019-01-18T21:53:48.508Z,11.40
2019-01-18T21:57:02.215Z,14.33
2019-01-18T22:00:12.418Z,13.13
2019-01-18T22:03:25.246Z,13.37
2019-01-18T22:06:05.745Z,12.63
2019-01-18T22:09:16.660Z,12.23
2019-01-18T22:12:16.843Z,12.03
2019-01-18T22:15:22.852Z,10.87
2019-01-18T22:18:20.002Z,12.33
2019-01-18T22:21:37.218Z,12.03
2019-01-18T22:24:37.268Z,11.63
2019-01-18T22:27:34.076Z,11.57
2019-01-18T22:30:15.529Z,11.30
2019-01-18T22:33:24.085Z,12.37
2019-01-18T22:36:38.789Z,12.37
2019-01-18T22:39:59.220Z,11.87
2019-01-18T22:42:59.760Z,12.23
2019-01-18T22:45:58.891Z,11.07
2019-01-18T22:49:03.281Z,12.57
2019-01-18T22:52:24.662Z,11.70
2019-01-18T22:55:36.282Z,12.63
2019-01-18T22:58:46.365Z,12.30
2019-01-18T23:01:49.666Z,13.20
2019-01-18T23:04:45.899Z,12.87
2019-01-18T23:07:43.390Z,12.43
2019-01-18T23:10:38.879Z,13.30
2019-01-18T23:13:46.783Z,12.43
2019-01-18T23:17:16.509Z,12.33
2019-01-18T23:20:21.016Z,12.50
2019-01-18T23:23:18.798Z,12.43
2019-01-18T23:26:24.143Z,12.10
2019-01-18T23:29:21.622Z,12.13
2019-01-18T23:32:39.671Z,12.30
2019-01-18T23:35:25.810Z,11.40
2019-01-18T23:38:36.422Z,11.77
2019-01-18T23:41:32.740Z,12.13
2019-01-18T23:44:32.765Z,12.17
2019-01-18T23:47:38.684Z,12.00
2019-01-18T23:50:37.331Z,12.10
2019-01-18T23:53:25.175Z,11.50
2019-01-18T23:56:22.363Z,11.93
2019-01-18T23:59:47.631Z,12.27
